Time;durP1;ratioP1;P1;durP2;ratioP2;P2;SDS_P1;SDS_P2;PMS_P1;PMS_P2;Temp;Humidity;BMP_temperature;BMP_pressure;BME280_temperature;BME280_humidity;BME280_pressure;Samples;Min_cycle;Max_cycle;Signal;HPM_P1;HPM_P2
2022/12/28 00:01:50;;;;;;;;;;;31.50;79.60;;;;;;5034586;28;19916;-75
2022/12/28 00:04:16;;;;;;;;;;;31.40;79.40;;;;;;5033120;28;19913;-76
2022/12/28 00:06:44;;;;;;;;;;;31.50;79.50;;;;;;5024571;28;19925;-73
2022/12/28 00:09:11;;;;;;;;;;;31.70;79.20;;;;;;5019395;28;20204;-73
2022/12/28 00:11:38;;;;;;;;;;;31.90;78.60;;;;;;5031878;28;19979;-74
2022/12/28 00:14:05;;;;;;;;;;;32.10;80.20;;;;;;5028380;28;20016;-76
2022/12/28 00:16:33;;;;;;;;;;;32.20;79.20;;;;;;5031350;28;20009;-76
2022/12/28 00:19:01;;;;;;;;;;;32.30;78.80;;;;;;5025999;28;20054;-70
2022/12/28 00:21:28;;;;;;;;;;;32.40;77.90;;;;;;5031164;28;20386;-71
2022/12/28 00:23:56;;;;;;;;;;;32.30;78.40;;;;;;5028335;28;19913;-75
2022/12/28 00:26:22;;;;;;;;;;;32.30;79.50;;;;;;5027539;28;20325;-75
2022/12/28 00:28:49;;;;;;;;;;;32.70;78.40;;;;;;5008400;28;19952;-76
2022/12/28 00:31:16;;;;;;;;;;;32.80;75.50;;;;;;5025481;28;19924;-75
2022/12/28 00:33:43;;;;;;;;;;;32.90;76.90;;;;;;5023611;28;19999;-74
2022/12/28 00:36:11;;;;;;;;;;;32.80;77.20;;;;;;5042940;28;19921;-74
2022/12/28 00:38:38;;;;;;;;;;;32.90;75.10;;;;;;5041769;28;19917;-77
2022/12/28 00:41:05;;;;;;;;;;;32.80;71.40;;;;;;5031055;28;20379;-76
2022/12/28 00:43:32;;;;;;;;;;;32.80;70.80;;;;;;5025107;28;20291;-74
2022/12/28 00:45:58;;;;;;;;;;;32.90;70.90;;;;;;5011611;28;19913;-73
2022/12/28 00:48:25;;;;;;;;;;;33.10;71.80;;;;;;5020568;28;20641;-74
2022/12/28 00:50:52;;;;;;;;;;;33.10;68.80;;;;;;5037124;28;19967;-73
2022/12/28 00:53:18;;;;;;;;;;;33.20;66.30;;;;;;5042105;28;19924;-75
2022/12/28 00:55:45;;;;;;;;;;;33.50;69.20;;;;;;5025180;28;19916;-74
2022/12/28 00:58:13;;;;;;;;;;;33.70;67.30;;;;;;5025040;28;20330;-71
2022/12/28 01:00:40;;;;;;;;;;;34.00;67.10;;;;;;5009245;28;19979;-74
2022/12/28 01:03:06;;;;;;;;;;;34.20;67.30;;;;;;5027606;28;20008;-69
2022/12/28 01:05:33;;;;;;;;;;;34.30;65.70;;;;;;5032670;28;19991;-71
2022/12/28 01:08:00;;;;;;;;;;;34.30;64.70;;;;;;5045663;28;19917;-74
2022/12/28 01:10:27;;;;;;;;;;;34.30;62.50;;;;;;5044886;28;19913;-73
2022/12/28 01:12:54;;;;;;;;;;;34.50;62.10;;;;;;5042298;28;19921;-72
2022/12/28 01:15:20;;;;;;;;;;;34.50;63.10;;;;;;5024589;28;19919;-75
2022/12/28 01:17:47;;;;;;;;;;;34.60;63.20;;;;;;5015283;28;19967;-72
2022/12/28 01:20:14;;;;;;;;;;;34.80;61.70;;;;;;5022082;28;20287;-74
2022/12/28 01:22:41;;;;;;;;;;;34.90;59.50;;;;;;4997401;28;19925;-75
2022/12/28 01:25:07;;;;;;;;;;;35.20;59.20;;;;;;5000633;28;19971;-73
2022/12/28 01:27:34;;;;;;;;;;;35.30;61.60;;;;;;4996677;28;19913;-75
2022/12/28 01:30:01;;;;;;;;;;;35.20;61.90;;;;;;5009246;28;19924;-74
2022/12/28 01:32:27;;;;;;;;;;;34.90;62.40;;;;;;5000661;28;19918;-71
2022/12/28 01:34:54;;;;;;;;;;;35.00;63.10;;;;;;5009033;28;20004;-73
2022/12/28 01:37:21;;;;;;;;;;;35.10;62.50;;;;;;5012697;28;20449;-73
2022/12/28 01:39:47;;;;;;;;;;;35.00;62.10;;;;;;5009731;28;19929;-71
2022/12/28 01:42:18;;;;;;;;;;;34.90;63.10;;;;;;4999858;28;19964;-73
2022/12/28 01:44:46;;;;;;;;;;;35.10;62.70;;;;;;5000133;28;19918;-72
2022/12/28 01:47:34;;;;;;;;;;;35.20;62.00;;;;;;5011918;28;19913;-74
2022/12/28 01:50:04;;;;;;;;;;;35.30;60.00;;;;;;4997072;28;19914;-72
2022/12/28 01:52:42;;;;;;;;;;;35.40;60.00;;;;;;5002225;28;19923;-72
2022/12/28 01:55:10;;;;;;;;;;;35.30;59.40;;;;;;5004805;28;20012;-73
2022/12/28 01:57:40;;;;;;;;;;;35.40;58.30;;;;;;5005834;28;19917;-73
2022/12/28 02:00:11;;;;;;;;;;;35.40;58.10;;;;;;5001829;28;19928;-74
2022/12/28 02:02:39;;;;;;;;;;;35.30;57.90;;;;;;5003873;28;19972;-71
2022/12/28 02:05:06;;;;;;;;;;;35.60;56.40;;;;;;5008401;28;20017;-75
2022/12/28 02:08:08;;;;;;;;;;;35.80;56.60;;;;;;5001489;28;19913;-73
2022/12/28 02:10:36;;;;;;;;;;;36.20;58.10;;;;;;4947668;28;19918;-73
2022/12/28 02:13:03;;;;;;;;;;;36.10;60.50;;;;;;4987708;28;19919;-74
2022/12/28 02:15:30;;;;;;;;;;;35.80;60.60;;;;;;5015099;28;19918;-72
2022/12/28 02:17:57;;;;;;;;;;;35.80;61.10;;;;;;4999566;28;19926;-75
2022/12/28 02:20:28;;;;;;;;;;;35.90;61.20;;;;;;5000126;28;19947;-74
2022/12/28 02:23:04;;;;;;;;;;;36.10;61.50;;;;;;4996793;28;19933;-73
2022/12/28 02:26:03;;;;;;;;;;;36.60;60.50;;;;;;5029159;28;19917;-71
2022/12/28 02:28:47;;;;;;;;;;;37.00;60.10;;;;;;5006402;28;19917;-76
2022/12/28 02:31:34;;;;;;;;;;;37.10;59.40;;;;;;5035556;28;20062;-75
2022/12/28 02:34:07;;;;;;;;;;;37.30;58.30;;;;;;5040270;28;20391;-69
2022/12/28 02:36:36;;;;;;;;;;;37.20;57.90;;;;;;5028759;28;20008;-75
2022/12/28 02:39:06;;;;;;;;;;;37.00;57.80;;;;;;5026701;28;20004;-73
2022/12/28 02:41:34;;;;;;;;;;;37.00;58.60;;;;;;5039568;28;19913;-73
2022/12/28 02:44:00;;;;;;;;;;;37.00;57.90;;;;;;5028569;28;19923;-73
2022/12/28 02:52:10;;;;;;;;;;;37.00;59.10;;;;;;5020840;28;20335;-74
2022/12/28 02:57:45;;;;;;;;;;;37.10;58.10;;;;;;5036250;28;19923;-71
2022/12/28 03:00:14;;;;;;;;;;;37.10;59.00;;;;;;5035676;28;20015;-72
2022/12/28 03:03:00;;;;;;;;;;;37.40;58.50;;;;;;5030941;28;19920;-70
2022/12/28 03:08:49;;;;;;;;;;;37.80;58.00;;;;;;5031927;28;19952;-70
2022/12/28 03:11:18;;;;;;;;;;;38.10;58.20;;;;;;5025073;28;19913;-75
2022/12/28 03:13:50;;;;;;;;;;;38.00;57.80;;;;;;5024812;28;19917;-71
2022/12/28 03:16:19;;;;;;;;;;;37.90;58.50;;;;;;5035817;28;19921;-73
2022/12/28 03:32:55;;;;;;;;;;;39.00;57.80;;;;;;5012235;28;20275;-71
2022/12/28 03:35:27;;;;;;;;;;;39.20;58.50;;;;;;5024748;28;19965;-71
2022/12/28 03:37:57;;;;;;;;;;;39.30;58.30;;;;;;5012637;28;20360;-73
2022/12/28 03:40:38;;;;;;;;;;;39.50;58.10;;;;;;5016359;28;19976;-71
2022/12/28 03:46:11;;;;;;;;;;;39.70;57.50;;;;;;5006164;28;19921;-74
2022/12/28 03:48:38;;;;;;;;;;;39.70;58.20;;;;;;5009566;28;20500;-73
2022/12/28 03:51:04;;;;;;;;;;;39.50;55.70;;;;;;5005911;28;19913;-74
2022/12/28 03:53:41;;;;;;;;;;;39.10;56.60;;;;;;5009673;28;19947;-74
2022/12/28 03:56:10;;;;;;;;;;;39.10;57.60;;;;;;5013661;28;20253;-75
2022/12/28 03:58:36;;;;;;;;;;;39.10;57.00;;;;;;5003611;28;19921;-74
2022/12/28 04:01:03;;;;;;;;;;;39.00;58.20;;;;;;5011648;28;19913;-72
2022/12/28 04:03:30;;;;;;;;;;;39.10;58.30;;;;;;5009969;28;20334;-74
2022/12/28 04:05:57;;;;;;;;;;;39.30;58.10;;;;;;5011585;28;19914;-72
2022/12/28 04:08:23;;;;;;;;;;;39.30;56.90;;;;;;5014745;28;20291;-70
2022/12/28 04:10:50;;;;;;;;;;;39.30;56.60;;;;;;5007175;28;20280;-71
2022/12/28 04:13:17;;;;;;;;;;;39.00;56.30;;;;;;4993862;28;19917;-70
2022/12/28 04:15:44;;;;;;;;;;;38.60;57.20;;;;;;5014644;28;19913;-70
2022/12/28 04:18:10;;;;;;;;;;;38.60;57.10;;;;;;5010450;28;20356;-71
2022/12/28 04:20:37;;;;;;;;;;;38.70;57.60;;;;;;5008524;28;19922;-72
2022/12/28 04:23:04;;;;;;;;;;;38.90;58.50;;;;;;5011162;28;20016;-70
2022/12/28 04:25:31;;;;;;;;;;;39.10;57.10;;;;;;5021535;28;20302;-73
2022/12/28 04:27:57;;;;;;;;;;;39.20;56.90;;;;;;5009430;28;20895;-69
2022/12/28 04:30:24;;;;;;;;;;;39.00;56.30;;;;;;5015618;28;20008;-70
2022/12/28 04:32:50;;;;;;;;;;;38.70;56.70;;;;;;5024506;28;19917;-70
2022/12/28 04:35:17;;;;;;;;;;;38.50;56.90;;;;;;5018215;28;19917;-70
2022/12/28 04:37:44;;;;;;;;;;;38.10;57.30;;;;;;5021157;28;19913;-71
2022/12/28 04:40:10;;;;;;;;;;;37.90;58.10;;;;;;5007866;28;19925;-72
2022/12/28 04:42:37;;;;;;;;;;;37.70;62.30;;;;;;5021557;28;19932;-68
2022/12/28 04:45:04;;;;;;;;;;;37.70;64.50;;;;;;4998625;28;19920;-69
2022/12/28 04:47:31;;;;;;;;;;;37.50;65.10;;;;;;4993749;28;20291;-70
2022/12/28 04:49:57;;;;;;;;;;;37.30;65.30;;;;;;5018990;28;19917;-70
2022/12/28 04:52:24;;;;;;;;;;;37.20;64.80;;;;;;5026511;28;20336;-70
2022/12/28 04:54:51;;;;;;;;;;;37.10;65.60;;;;;;5014615;28;19925;-69
2022/12/28 04:57:17;;;;;;;;;;;37.10;66.00;;;;;;5015388;28;19929;-69
2022/12/28 04:59:44;;;;;;;;;;;36.90;65.60;;;;;;5008776;28;19941;-70
2022/12/28 05:02:11;;;;;;;;;;;36.70;65.80;;;;;;5014874;28;19917;-73
2022/12/28 05:04:37;;;;;;;;;;;36.50;65.80;;;;;;5025315;28;19924;-72
2022/12/28 05:07:07;;;;;;;;;;;36.60;65.40;;;;;;5034584;28;19923;-72
2022/12/28 05:09:34;;;;;;;;;;;36.40;65.00;;;;;;4997837;28;20382;-72
2022/12/28 05:12:00;;;;;;;;;;;36.20;65.60;;;;;;5034392;28;19916;-73
2022/12/28 05:14:27;;;;;;;;;;;36.20;65.20;;;;;;5008674;28;19913;-72
2022/12/28 05:16:54;;;;;;;;;;;36.20;65.80;;;;;;5014583;28;19918;-69
2022/12/28 05:19:20;;;;;;;;;;;36.30;66.60;;;;;;5004152;28;19933;-70
2022/12/28 05:21:47;;;;;;;;;;;36.30;65.20;;;;;;5020214;28;20286;-69
2022/12/28 05:24:14;;;;;;;;;;;36.40;65.00;;;;;;5014243;28;20475;-71
2022/12/28 05:26:40;;;;;;;;;;;36.40;65.10;;;;;;5023900;28;19964;-73
2022/12/28 05:29:07;;;;;;;;;;;36.30;64.70;;;;;;5010814;28;19945;-72
2022/12/28 05:31:34;;;;;;;;;;;36.00;64.70;;;;;;5010911;28;19916;-71
2022/12/28 05:34:00;;;;;;;;;;;35.80;65.00;;;;;;5017301;28;19917;-71
2022/12/28 05:36:27;;;;;;;;;;;35.70;65.40;;;;;;5021858;28;19913;-72
2022/12/28 05:38:54;;;;;;;;;;;35.80;65.10;;;;;;5013491;28;20375;-71
2022/12/28 05:41:28;;;;;;;;;;;36.10;65.40;;;;;;5019716;28;20023;-71
2022/12/28 05:43:55;;;;;;;;;;;36.00;65.70;;;;;;5007342;28;19925;-70
2022/12/28 05:46:26;;;;;;;;;;;35.80;65.60;;;;;;5012040;28;19913;-72
2022/12/28 05:48:56;;;;;;;;;;;35.80;66.30;;;;;;4991504;28;20359;-73
2022/12/28 05:51:27;;;;;;;;;;;35.80;66.80;;;;;;5015597;28;19913;-73
2022/12/28 05:53:54;;;;;;;;;;;35.60;66.90;;;;;;5015045;28;19917;-74
2022/12/28 05:56:22;;;;;;;;;;;35.50;66.70;;;;;;5024868;28;20337;-74
2022/12/28 05:58:59;;;;;;;;;;;35.40;67.40;;;;;;5004659;28;20339;-75
2022/12/28 06:01:28;;;;;;;;;;;35.50;67.90;;;;;;5026265;28;19924;-73
2022/12/28 06:03:56;;;;;;;;;;;35.60;66.40;;;;;;5015906;28;19913;-72
2022/12/28 06:06:23;;;;;;;;;;;35.50;66.50;;;;;;5004390;28;19928;-71
2022/12/28 06:08:49;;;;;;;;;;;35.50;66.90;;;;;;5008061;28;20009;-70
2022/12/28 06:11:18;;;;;;;;;;;35.60;67.00;;;;;;5021429;28;19917;-71
2022/12/28 06:13:44;;;;;;;;;;;35.60;67.30;;;;;;5006284;28;19922;-71
2022/12/28 06:16:13;;;;;;;;;;;35.50;67.40;;;;;;5027627;28;20329;-73
2022/12/28 06:18:40;;;;;;;;;;;35.30;67.80;;;;;;5017873;28;20013;-74
2022/12/28 06:21:07;;;;;;;;;;;35.30;68.00;;;;;;5023077;28;20106;-70
2022/12/28 06:23:34;;;;;;;;;;;35.00;67.50;;;;;;5025393;28;19917;-73
2022/12/28 06:26:06;;;;;;;;;;;34.70;68.30;;;;;;5044846;28;20205;-73
2022/12/28 06:28:35;;;;;;;;;;;34.70;68.30;;;;;;5030410;28;19960;-73
2022/12/28 06:31:03;;;;;;;;;;;34.70;69.20;;;;;;5048502;28;19916;-76
2022/12/28 06:33:30;;;;;;;;;;;34.70;69.40;;;;;;5040558;28;20016;-74
2022/12/28 06:35:57;;;;;;;;;;;34.60;70.20;;;;;;5027438;28;20393;-73
2022/12/28 06:38:24;;;;;;;;;;;34.50;70.00;;;;;;5026833;28;19932;-71
2022/12/28 06:40:50;;;;;;;;;;;34.50;69.60;;;;;;5040176;28;20270;-74
2022/12/28 06:43:17;;;;;;;;;;;34.30;70.80;;;;;;5043652;28;20304;-73
2022/12/28 06:45:53;;;;;;;;;;;34.20;70.90;;;;;;5048248;28;19920;-74
2022/12/28 06:48:21;;;;;;;;;;;34.20;70.50;;;;;;5037557;28;19917;-73
2022/12/28 06:50:58;;;;;;;;;;;34.10;70.10;;;;;;5048623;28;20051;-71
2022/12/28 06:53:26;;;;;;;;;;;33.90;70.60;;;;;;5037072;28;20359;-75
2022/12/28 06:55:54;;;;;;;;;;;33.90;70.70;;;;;;5041978;28;19935;-73
2022/12/28 06:58:21;;;;;;;;;;;33.80;71.70;;;;;;5041438;28;19921;-71
2022/12/28 07:00:48;;;;;;;;;;;33.70;71.90;;;;;;5028721;28;20359;-75
2022/12/28 07:03:15;;;;;;;;;;;33.60;71.90;;;;;;5027411;28;19913;-74
2022/12/28 07:05:42;;;;;;;;;;;33.50;71.70;;;;;;5023408;28;20376;-74
2022/12/28 07:08:09;;;;;;;;;;;33.20;71.80;;;;;;5000074;28;19999;-71
2022/12/28 07:10:36;;;;;;;;;;;33.10;72.30;;;;;;5025364;28;19924;-71
2022/12/28 07:13:03;;;;;;;;;;;33.00;73.10;;;;;;5018770;28;19967;-72
2022/12/28 07:15:30;;;;;;;;;;;32.80;73.90;;;;;;5036053;28;19917;-72
2022/12/28 07:17:57;;;;;;;;;;;32.70;74.30;;;;;;5042574;28;19963;-73
2022/12/28 07:20:24;;;;;;;;;;;32.70;74.20;;;;;;5012518;28;19920;-72
2022/12/28 07:22:51;;;;;;;;;;;32.60;74.10;;;;;;5031435;28;19925;-69
2022/12/28 07:25:17;;;;;;;;;;;32.60;74.50;;;;;;5029120;28;19978;-71
2022/12/28 07:27:44;;;;;;;;;;;32.50;74.80;;;;;;5030696;28;20518;-70
2022/12/28 07:30:11;;;;;;;;;;;32.40;75.10;;;;;;5025201;28;20367;-71
2022/12/28 07:32:38;;;;;;;;;;;32.30;75.70;;;;;;5030244;28;19917;-72
2022/12/28 07:35:05;;;;;;;;;;;32.10;75.90;;;;;;5028509;28;20284;-73
2022/12/28 07:37:32;;;;;;;;;;;32.10;76.40;;;;;;5052351;28;19925;-72
2022/12/28 07:39:59;;;;;;;;;;;32.10;77.20;;;;;;5043652;28;19997;-72
2022/12/28 07:42:25;;;;;;;;;;;32.00;77.10;;;;;;5045742;28;19958;-71
2022/12/28 07:44:52;;;;;;;;;;;31.90;77.50;;;;;;5037069;28;19918;-70
2022/12/28 07:47:19;;;;;;;;;;;31.70;78.00;;;;;;5046932;28;19962;-73
2022/12/28 07:49:45;;;;;;;;;;;31.70;78.60;;;;;;5033041;28;19913;-73
2022/12/28 07:52:12;;;;;;;;;;;31.40;79.00;;;;;;5043320;28;19917;-72
2022/12/28 07:54:38;;;;;;;;;;;31.40;79.30;;;;;;5037971;28;19917;-70
2022/12/28 07:57:05;;;;;;;;;;;31.40;78.80;;;;;;5028703;28;19936;-70
2022/12/28 07:59:32;;;;;;;;;;;31.20;79.30;;;;;;5031268;28;19921;-73
2022/12/28 08:02:02;;;;;;;;;;;31.00;79.90;;;;;;5036797;28;19914;-72
2022/12/28 08:04:28;;;;;;;;;;;30.90;80.40;;;;;;5024724;28;19999;-72
2022/12/28 08:06:55;;;;;;;;;;;30.70;79.60;;;;;;5035001;28;19960;-72
2022/12/28 08:09:22;;;;;;;;;;;30.60;79.50;;;;;;5028219;28;19956;-72
2022/12/28 08:11:48;;;;;;;;;;;30.40;80.80;;;;;;5022984;28;20394;-68
2022/12/28 08:14:15;;;;;;;;;;;30.30;80.70;;;;;;5027516;28;19913;-73
2022/12/28 08:16:42;;;;;;;;;;;30.30;81.10;;;;;;5028117;28;19921;-71
2022/12/28 08:19:09;;;;;;;;;;;30.10;81.70;;;;;;5027425;28;20646;-72
2022/12/28 08:21:37;;;;;;;;;;;30.00;81.50;;;;;;5029316;28;19943;-71
2022/12/28 08:24:04;;;;;;;;;;;29.90;81.80;;;;;;5021461;28;20000;-71
2022/12/28 08:26:32;;;;;;;;;;;29.90;82.30;;;;;;5024801;28;19921;-71
2022/12/28 08:29:00;;;;;;;;;;;29.70;82.50;;;;;;5019484;28;19916;-71
2022/12/28 08:31:32;;;;;;;;;;;29.60;82.90;;;;;;5029365;28;19913;-70
2022/12/28 08:33:59;;;;;;;;;;;29.60;83.40;;;;;;5031667;28;19916;-71
2022/12/28 08:36:26;;;;;;;;;;;29.60;83.70;;;;;;5014790;28;19923;-70
2022/12/28 08:38:53;;;;;;;;;;;29.50;83.90;;;;;;5014117;28;20003;-71
2022/12/28 08:41:21;;;;;;;;;;;29.50;84.10;;;;;;5034756;28;19943;-70
2022/12/28 08:43:48;;;;;;;;;;;29.50;84.20;;;;;;5042213;28;19909;-69
2022/12/28 08:46:19;;;;;;;;;;;29.50;84.50;;;;;;5039518;28;19921;-71
2022/12/28 08:48:46;;;;;;;;;;;29.40;84.90;;;;;;5003159;28;20002;-70
2022/12/28 08:51:17;;;;;;;;;;;29.30;85.50;;;;;;5031772;28;19920;-71
2022/12/28 08:53:44;;;;;;;;;;;29.10;85.80;;;;;;5029976;28;19913;-71
2022/12/28 08:56:12;;;;;;;;;;;29.00;86.50;;;;;;5037852;28;19909;-69
2022/12/28 08:58:39;;;;;;;;;;;28.90;86.80;;;;;;5031788;28;19968;-69
2022/12/28 09:01:07;;;;;;;;;;;28.80;87.50;;;;;;5039751;28;19929;-69
2022/12/28 09:03:38;;;;;;;;;;;28.60;88.30;;;;;;5032477;28;19943;-71
2022/12/28 09:06:06;;;;;;;;;;;28.50;88.60;;;;;;5042725;28;19916;-72
2022/12/28 09:08:33;;;;;;;;;;;28.50;89.10;;;;;;5035103;28;20108;-73
2022/12/28 09:11:06;;;;;;;;;;;28.40;89.50;;;;;;5030039;28;20314;-70
2022/12/28 09:13:33;;;;;;;;;;;28.20;90.10;;;;;;5021391;28;20012;-69
2022/12/28 09:16:03;;;;;;;;;;;28.10;90.40;;;;;;5031220;28;20382;-70
2022/12/28 09:18:29;;;;;;;;;;;28.10;90.60;;;;;;5030030;28;20276;-71
2022/12/28 09:20:56;;;;;;;;;;;28.00;90.70;;;;;;5029912;28;19927;-70
2022/12/28 09:23:23;;;;;;;;;;;28.00;90.80;;;;;;5027323;28;19921;-71
2022/12/28 09:25:50;;;;;;;;;;;28.00;90.80;;;;;;5029311;28;19909;-72
2022/12/28 09:28:17;;;;;;;;;;;28.10;90.90;;;;;;5023651;28;20296;-71
2022/12/28 09:30:43;;;;;;;;;;;28.20;90.70;;;;;;5016077;28;19935;-69
2022/12/28 09:35:58;;;;;;;;;;;28.10;90.90;;;;;;5027775;28;19920;-70
2022/12/28 09:38:25;;;;;;;;;;;28.10;91.00;;;;;;5027775;28;19978;-70
2022/12/28 09:40:52;;;;;;;;;;;28.10;91.00;;;;;;5035877;28;19952;-71
2022/12/28 09:43:19;;;;;;;;;;;28.10;91.00;;;;;;5027863;28;19910;-70
2022/12/28 09:45:46;;;;;;;;;;;28.10;91.00;;;;;;5037004;28;19913;-70
2022/12/28 09:48:16;;;;;;;;;;;28.10;91.00;;;;;;5016536;28;19963;-70
2022/12/28 09:50:43;;;;;;;;;;;28.10;91.20;;;;;;5023983;28;19975;-70
2022/12/28 09:53:30;;;;;;;;;;;28.10;91.30;;;;;;5041572;28;20287;-70
2022/12/28 09:55:59;;;;;;;;;;;28.00;91.40;;;;;;5037271;28;19921;-70
2022/12/28 09:58:27;;;;;;;;;;;28.00;91.50;;;;;;5025840;28;19925;-72
2022/12/28 10:00:55;;;;;;;;;;;27.90;91.70;;;;;;5028678;28;20731;-72
2022/12/28 10:03:41;;;;;;;;;;;27.90;92.00;;;;;;5029857;28;19924;-69
2022/12/28 10:06:12;;;;;;;;;;;27.70;92.10;;;;;;5040905;28;19913;-70
2022/12/28 10:08:48;;;;;;;;;;;27.60;92.40;;;;;;5027170;28;19909;-71
2022/12/28 10:11:27;;;;;;;;;;;27.50;92.60;;;;;;5018689;28;19913;-70
2022/12/28 10:13:55;;;;;;;;;;;27.40;93.00;;;;;;5017579;28;19956;-70
2022/12/28 10:16:22;;;;;;;;;;;27.30;93.10;;;;;;5024033;28;19917;-69
2022/12/28 10:18:49;;;;;;;;;;;27.10;93.40;;;;;;5022415;28;19950;-69
2022/12/28 10:21:18;;;;;;;;;;;27.10;93.70;;;;;;5022417;28;19968;-70
2022/12/28 10:23:47;;;;;;;;;;;27.10;94.00;;;;;;5012603;28;20004;-69
2022/12/28 10:26:15;;;;;;;;;;;27.00;94.00;;;;;;5003679;28;19948;-70
2022/12/28 10:28:57;;;;;;;;;;;26.90;94.10;;;;;;5002887;28;19920;-71
2022/12/28 10:31:50;;;;;;;;;;;26.90;94.40;;;;;;5005874;28;19941;-71
2022/12/28 10:34:19;;;;;;;;;;;26.80;94.60;;;;;;5006327;28;19929;-69
2022/12/28 10:36:47;;;;;;;;;;;26.70;95.00;;;;;;5005544;28;19918;-68
2022/12/28 10:39:24;;;;;;;;;;;26.70;95.20;;;;;;5006553;28;19979;-71
2022/12/28 10:41:51;;;;;;;;;;;26.60;95.50;;;;;;5007202;28;19913;-70
2022/12/28 10:44:20;;;;;;;;;;;26.40;95.70;;;;;;5011167;28;19921;-70
2022/12/28 10:47:00;;;;;;;;;;;26.40;95.90;;;;;;5006139;28;20000;-70
2022/12/28 10:49:30;;;;;;;;;;;26.40;96.00;;;;;;5002563;28;19928;-72
2022/12/28 10:52:05;;;;;;;;;;;26.40;96.10;;;;;;5011762;28;19913;-73
2022/12/28 10:54:34;;;;;;;;;;;26.40;96.30;;;;;;4997092;28;19971;-73
2022/12/28 10:57:00;;;;;;;;;;;26.30;96.40;;;;;;5006141;28;20209;-70
2022/12/28 10:59:28;;;;;;;;;;;26.20;96.70;;;;;;5015475;28;19921;-70
2022/12/28 11:02:13;;;;;;;;;;;26.10;96.80;;;;;;5006777;28;20275;-72
2022/12/28 11:04:51;;;;;;;;;;;26.10;97.10;;;;;;5015231;28;19972;-72
2022/12/28 11:07:37;;;;;;;;;;;26.10;97.30;;;;;;5020375;28;19917;-72
2022/12/28 11:10:22;;;;;;;;;;;26.10;97.30;;;;;;5003524;28;20378;-70
2022/12/28 11:12:49;;;;;;;;;;;26.00;97.40;;;;;;4996960;28;19932;-70
2022/12/28 11:15:17;;;;;;;;;;;26.00;97.60;;;;;;5027828;28;20370;-70
2022/12/28 11:17:47;;;;;;;;;;;26.00;97.80;;;;;;5005245;28;20000;-70
2022/12/28 11:20:14;;;;;;;;;;;26.00;97.80;;;;;;5008766;28;20403;-69
2022/12/28 11:22:40;;;;;;;;;;;25.90;98.00;;;;;;5029325;28;19924;-71
2022/12/28 11:25:07;;;;;;;;;;;25.90;98.10;;;;;;5014823;28;20364;-72
2022/12/28 11:27:35;;;;;;;;;;;25.90;98.40;;;;;;5029174;28;20278;-71
2022/12/28 11:30:02;;;;;;;;;;;25.80;98.50;;;;;;5025044;28;20028;-70
2022/12/28 11:32:52;;;;;;;;;;;25.80;98.60;;;;;;5029136;28;19975;-70
2022/12/28 11:35:29;;;;;;;;;;;25.70;98.90;;;;;;5027021;28;20334;-70
2022/12/28 11:37:57;;;;;;;;;;;25.80;98.90;;;;;;5010717;28;19917;-71
2022/12/28 11:40:41;;;;;;;;;;;25.80;99.00;;;;;;5034501;28;19993;-71
2022/12/28 11:43:28;;;;;;;;;;;25.70;99.10;;;;;;5032410;28;19935;-71
2022/12/28 11:45:58;;;;;;;;;;;25.60;99.30;;;;;;5011241;28;19960;-70
2022/12/28 11:48:43;;;;;;;;;;;25.50;99.50;;;;;;5017871;28;19928;-69
2022/12/28 11:51:20;;;;;;;;;;;25.50;99.70;;;;;;5024501;28;19997;-70
2022/12/28 11:53:47;;;;;;;;;;;25.50;99.80;;;;;;5026437;28;19917;-72
2022/12/28 11:56:17;;;;;;;;;;;25.40;99.90;;;;;;5015828;28;19917;-70
2022/12/28 11:58:46;;;;;;;;;;;25.40;99.90;;;;;;5023806;28;20375;-70
2022/12/28 12:01:28;;;;;;;;;;;25.30;99.90;;;;;;5020883;28;19921;-69
2022/12/28 12:03:57;;;;;;;;;;;25.30;99.90;;;;;;5027864;28;19913;-72
2022/12/28 12:06:40;;;;;;;;;;;25.30;99.90;;;;;;5052373;28;20260;-68
2022/12/28 12:09:29;;;;;;;;;;;25.20;99.90;;;;;;5026734;28;20004;-70
2022/12/28 12:12:00;;;;;;;;;;;25.20;99.90;;;;;;5015439;28;19980;-70
2022/12/28 12:14:38;;;;;;;;;;;25.10;99.90;;;;;;5018898;28;19924;-70
2022/12/28 12:17:07;;;;;;;;;;;25.10;99.90;;;;;;5029833;28;19977;-71
2022/12/28 12:19:38;;;;;;;;;;;25.00;99.90;;;;;;5024308;28;20003;-71
2022/12/28 12:22:20;;;;;;;;;;;25.00;99.90;;;;;;5021279;28;19949;-71
2022/12/28 12:24:56;;;;;;;;;;;25.00;99.90;;;;;;5025744;28;19967;-70
2022/12/28 12:27:23;;;;;;;;;;;25.00;99.90;;;;;;5026222;28;19974;-68
2022/12/28 12:29:58;;;;;;;;;;;25.00;99.90;;;;;;5016681;28;19913;-69
2022/12/28 12:32:30;;;;;;;;;;;24.90;99.90;;;;;;5029633;28;19920;-70
2022/12/28 12:35:03;;;;;;;;;;;24.90;99.90;;;;;;5020274;28;20362;-71
2022/12/28 12:37:46;;;;;;;;;;;24.90;99.90;;;;;;5028520;28;19963;-69
2022/12/28 12:40:18;;;;;;;;;;;24.80;99.90;;;;;;5036148;28;19921;-70
2022/12/28 12:42:51;;;;;;;;;;;24.80;99.90;;;;;;5027161;28;19924;-71
2022/12/28 12:45:21;;;;;;;;;;;24.70;99.90;;;;;;5029913;28;19913;-71
2022/12/28 12:48:00;;;;;;;;;;;24.70;99.90;;;;;;5025489;28;19925;-70
2022/12/28 12:50:36;;;;;;;;;;;24.60;99.90;;;;;;5029612;28;19917;-69
2022/12/28 12:53:23;;;;;;;;;;;24.60;99.90;;;;;;5025208;28;19917;-70
2022/12/28 12:56:07;;;;;;;;;;;24.50;99.90;;;;;;5033369;28;19917;-70
2022/12/28 12:58:51;;;;;;;;;;;24.50;99.90;;;;;;5032386;28;20443;-69
2022/12/28 13:01:18;;;;;;;;;;;24.40;99.90;;;;;;5025444;28;19921;-71
2022/12/28 13:03:45;;;;;;;;;;;24.40;99.90;;;;;;5033024;28;20409;-70
2022/12/28 13:06:16;;;;;;;;;;;24.30;99.90;;;;;;5019505;28;19917;-71
2022/12/28 13:08:51;;;;;;;;;;;24.30;99.90;;;;;;5018392;28;19924;-69
2022/12/28 13:11:18;;;;;;;;;;;24.20;99.90;;;;;;5012877;28;19917;-70
2022/12/28 13:13:49;;;;;;;;;;;24.20;99.90;;;;;;5030919;28;19951;-70
2022/12/28 13:16:20;;;;;;;;;;;24.20;99.90;;;;;;5039494;28;20433;-70
2022/12/28 13:18:54;;;;;;;;;;;24.20;99.90;;;;;;5018292;28;20449;-69
2022/12/28 13:21:22;;;;;;;;;;;24.20;99.90;;;;;;5024018;28;20502;-69
2022/12/28 13:23:49;;;;;;;;;;;24.20;99.90;;;;;;5021162;28;19913;-73
2022/12/28 13:26:16;;;;;;;;;;;24.20;99.90;;;;;;5030745;28;19919;-73
2022/12/28 13:28:50;;;;;;;;;;;24.10;99.90;;;;;;5023019;28;19972;-71
2022/12/28 13:31:19;;;;;;;;;;;24.00;99.90;;;;;;5026595;28;19921;-72
2022/12/28 13:33:56;;;;;;;;;;;24.00;99.90;;;;;;5006681;28;19921;-68
2022/12/28 13:36:22;;;;;;;;;;;23.90;99.90;;;;;;5022569;28;19913;-69
2022/12/28 13:39:09;;;;;;;;;;;23.90;99.90;;;;;;5019576;28;19929;-73
2022/12/28 13:41:36;;;;;;;;;;;23.80;99.90;;;;;;5012025;28;19969;-72
2022/12/28 13:44:11;;;;;;;;;;;23.70;99.90;;;;;;5021455;28;19921;-71
2022/12/28 13:46:40;;;;;;;;;;;23.60;99.90;;;;;;5025677;28;20422;-70
2022/12/28 13:49:06;;;;;;;;;;;23.60;99.90;;;;;;5028084;28;19956;-73
2022/12/28 13:51:36;;;;;;;;;;;23.60;99.90;;;;;;5030474;28;20653;-71
2022/12/28 13:54:03;;;;;;;;;;;23.50;99.90;;;;;;5021903;28;19930;-70
2022/12/28 13:56:31;;;;;;;;;;;23.40;99.90;;;;;;5031857;28;19913;-73
2022/12/28 13:59:00;;;;;;;;;;;23.40;99.90;;;;;;5027484;28;20705;-73
2022/12/28 14:01:30;;;;;;;;;;;23.30;99.90;;;;;;5018885;28;19914;-69
2022/12/28 14:03:59;;;;;;;;;;;23.30;99.90;;;;;;5018778;28;19920;-70
2022/12/28 14:06:26;;;;;;;;;;;23.30;99.90;;;;;;5018138;28;19921;-74
2022/12/28 14:08:53;;;;;;;;;;;23.20;99.90;;;;;;5025026;28;20394;-73
2022/12/28 14:11:20;;;;;;;;;;;23.20;99.90;;;;;;5029214;28;20335;-67
2022/12/28 14:13:47;;;;;;;;;;;23.10;99.90;;;;;;5017487;28;19914;-69
2022/12/28 14:16:14;;;;;;;;;;;23.10;99.90;;;;;;5028381;28;20395;-72
2022/12/28 14:18:41;;;;;;;;;;;23.10;99.90;;;;;;5026229;28;19948;-73
2022/12/28 14:21:08;;;;;;;;;;;23.00;99.90;;;;;;5014609;28;20287;-72
2022/12/28 14:23:36;;;;;;;;;;;23.00;99.90;;;;;;5019764;28;19925;-72
2022/12/28 14:26:10;;;;;;;;;;;22.90;99.90;;;;;;5027797;28;19913;-73
2022/12/28 14:28:41;;;;;;;;;;;22.80;99.90;;;;;;5026255;28;19913;-71
2022/12/28 14:31:09;;;;;;;;;;;22.80;99.90;;;;;;5025143;28;19913;-70
2022/12/28 14:33:37;;;;;;;;;;;22.70;99.90;;;;;;5016351;28;19999;-72
2022/12/28 14:36:06;;;;;;;;;;;22.70;99.90;;;;;;5021114;28;19933;-70
2022/12/28 14:38:44;;;;;;;;;;;22.60;99.90;;;;;;5022047;28;19924;-71
2022/12/28 14:41:22;;;;;;;;;;;22.60;99.90;;;;;;5025204;28;19917;-75
2022/12/28 14:43:56;;;;;;;;;;;22.50;99.90;;;;;;5027672;28;19919;-75
2022/12/28 14:46:36;;;;;;;;;;;22.50;99.90;;;;;;5021527;28;19936;-69
2022/12/28 14:49:21;;;;;;;;;;;22.50;99.90;;;;;;5019862;28;19936;-69
2022/12/28 14:51:47;;;;;;;;;;;22.40;99.90;;;;;;5023224;28;19971;-70
2022/12/28 14:54:17;;;;;;;;;;;22.30;99.90;;;;;;5023895;28;19917;-70
2022/12/28 14:56:52;;;;;;;;;;;22.30;99.90;;;;;;5015217;28;19913;-70
2022/12/28 14:59:33;;;;;;;;;;;22.30;99.90;;;;;;5031268;28;19921;-69
2022/12/28 15:02:00;;;;;;;;;;;22.30;99.90;;;;;;5028644;28;19914;-74
2022/12/28 15:04:28;;;;;;;;;;;22.30;99.90;;;;;;5024019;28;19913;-73